Raymondville, Texas
Current Conditions -  °F | °C
As of 7:52 PM on Saturday 25 Oct 2014 (Local Time) from KHRL Reporting Station
Clear Clear  
Wind Chill: 71°   Ceiling: Unl
Heat Index: 71°   Visibility: 10mi
Dew Point: 65°   Wind: 5mph
Humidity: 81%   Direction: 100°E
Pressure: 30.09"   Gusts: NA
Location:  26.48°N, 97.78°W
Report Text: KHRL 260052Z 10004KT 10SM CLR 22/18 A3009 RMK AO2 SLP187 T02170183
Loading
Personal Weather Stations






























Interactive Weather Map
Tropical Storm Tracking
New forecast layout! Learn more

10-Day Weather Forecast

Advertisements
Track Severe Weather on mobile